sensor_id;sensor_type;location;lat;lon;timestamp;temperature;humidity
25550;DHT22;13444;50.562;7.262;2023-03-23T00:01:06;14.40;99.90
25550;DHT22;13444;50.562;7.262;2023-03-23T00:03:35;14.40;99.90
25550;DHT22;13444;50.562;7.262;2023-03-23T00:06:01;14.40;99.90
25550;DHT22;13444;50.562;7.262;2023-03-23T00:08:34;14.30;99.90
25550;DHT22;13444;50.562;7.262;2023-03-23T00:11:04;14.30;99.90
25550;DHT22;13444;50.562;7.262;2023-03-23T00:13:29;14.30;99.90
25550;DHT22;13444;50.562;7.262;2023-03-23T00:15:55;14.30;99.90
25550;DHT22;13444;50.562;7.262;2023-03-23T00:18:22;14.30;99.90
25550;DHT22;13444;50.562;7.262;2023-03-23T00:20:52;14.30;99.90
25550;DHT22;13444;50.562;7.262;2023-03-23T00:23:20;14.30;99.90
25550;DHT22;13444;50.562;7.262;2023-03-23T00:25:47;14.30;99.90
25550;DHT22;13444;50.562;7.262;2023-03-23T00:28:14;14.20;99.90
25550;DHT22;13444;50.562;7.262;2023-03-23T00:30:40;14.30;99.90
25550;DHT22;13444;50.562;7.262;2023-03-23T00:33:07;14.20;99.90
25550;DHT22;13444;50.562;7.262;2023-03-23T00:35:33;14.20;99.90
25550;DHT22;13444;50.562;7.262;2023-03-23T00:38:01;14.20;99.90
25550;DHT22;13444;50.562;7.262;2023-03-23T00:40:27;14.20;99.90
25550;DHT22;13444;50.562;7.262;2023-03-23T00:42:53;14.10;99.90
25550;DHT22;13444;50.562;7.262;2023-03-23T00:45:18;14.10;99.90
25550;DHT22;13444;50.562;7.262;2023-03-23T00:47:44;14.10;99.90
25550;DHT22;13444;50.562;7.262;2023-03-23T00:50:12;14.10;99.90
25550;DHT22;13444;50.562;7.262;2023-03-23T00:52:39;14.10;99.90
25550;DHT22;13444;50.562;7.262;2023-03-23T00:55:06;14.10;99.90
25550;DHT22;13444;50.562;7.262;2023-03-23T00:57:31;14.00;99.90
25550;DHT22;13444;50.562;7.262;2023-03-23T00:59:57;14.00;99.90
25550;DHT22;13444;50.562;7.262;2023-03-23T01:02:22;14.00;99.90
25550;DHT22;13444;50.562;7.262;2023-03-23T01:04:50;14.00;99.90
25550;DHT22;13444;50.562;7.262;2023-03-23T01:07:18;14.00;99.90
25550;DHT22;13444;50.562;7.262;2023-03-23T01:09:43;14.00;99.90
25550;DHT22;13444;50.562;7.262;2023-03-23T01:12:12;13.90;99.90
25550;DHT22;13444;50.562;7.262;2023-03-23T01:14:38;13.90;99.90
25550;DHT22;13444;50.562;7.262;2023-03-23T01:17:03;13.90;99.90
25550;DHT22;13444;50.562;7.262;2023-03-23T01:19:29;13.90;99.90
25550;DHT22;13444;50.562;7.262;2023-03-23T01:21:55;13.90;99.90
25550;DHT22;13444;50.562;7.262;2023-03-23T01:24:20;13.80;99.90
25550;DHT22;13444;50.562;7.262;2023-03-23T01:26:46;13.70;99.90
25550;DHT22;13444;50.562;7.262;2023-03-23T01:29:11;13.70;99.90
25550;DHT22;13444;50.562;7.262;2023-03-23T01:31:37;13.80;99.90
25550;DHT22;13444;50.562;7.262;2023-03-23T01:34:02;13.70;99.90
25550;DHT22;13444;50.562;7.262;2023-03-23T01:36:29;13.70;99.90
25550;DHT22;13444;50.562;7.262;2023-03-23T01:38:59;13.70;99.90
25550;DHT22;13444;50.562;7.262;2023-03-23T01:41:26;13.60;99.90
25550;DHT22;13444;50.562;7.262;2023-03-23T01:46:55;13.50;99.90
25550;DHT22;13444;50.562;7.262;2023-03-23T01:49:30;13.50;99.90
25550;DHT22;13444;50.562;7.262;2023-03-23T01:51:59;13.60;99.90
25550;DHT22;13444;50.562;7.262;2023-03-23T01:54:26;13.50;99.90
25550;DHT22;13444;50.562;7.262;2023-03-23T01:56:59;13.50;99.90
25550;DHT22;13444;50.562;7.262;2023-03-23T01:59:27;13.50;99.90
25550;DHT22;13444;50.562;7.262;2023-03-23T02:01:54;13.40;99.90
25550;DHT22;13444;50.562;7.262;2023-03-23T02:04:23;13.40;99.90
25550;DHT22;13444;50.562;7.262;2023-03-23T02:06:50;13.40;99.90
25550;DHT22;13444;50.562;7.262;2023-03-23T02:09:17;13.30;99.90
25550;DHT22;13444;50.562;7.262;2023-03-23T02:11:43;13.40;99.90
25550;DHT22;13444;50.562;7.262;2023-03-23T02:14:09;13.30;99.90
25550;DHT22;13444;50.562;7.262;2023-03-23T02:16:55;13.30;99.90
25550;DHT22;13444;50.562;7.262;2023-03-23T02:28:16;13.30;99.90
25550;DHT22;13444;50.562;7.262;2023-03-23T02:31:17;13.30;99.90
25550;DHT22;13444;50.562;7.262;2023-03-23T02:34:07;13.20;99.90
25550;DHT22;13444;50.562;7.262;2023-03-23T02:36:46;13.20;99.90
25550;DHT22;13444;50.562;7.262;2023-03-23T02:39:22;13.10;99.90
25550;DHT22;13444;50.562;7.262;2023-03-23T02:42:05;13.10;99.90
25550;DHT22;13444;50.562;7.262;2023-03-23T02:44:34;13.10;99.90
25550;DHT22;13444;50.562;7.262;2023-03-23T02:47:02;13.10;99.90
25550;DHT22;13444;50.562;7.262;2023-03-23T02:49:31;13.10;99.90
25550;DHT22;13444;50.562;7.262;2023-03-23T02:51:59;13.00;99.90
25550;DHT22;13444;50.562;7.262;2023-03-23T02:54:27;13.00;99.90
25550;DHT22;13444;50.562;7.262;2023-03-23T02:56:54;13.00;99.90
25550;DHT22;13444;50.562;7.262;2023-03-23T02:59:21;13.00;99.90
25550;DHT22;13444;50.562;7.262;2023-03-23T03:02:01;13.00;99.90
25550;DHT22;13444;50.562;7.262;2023-03-23T03:04:29;13.00;99.90
25550;DHT22;13444;50.562;7.262;2023-03-23T03:09:50;12.90;99.90
25550;DHT22;13444;50.562;7.262;2023-03-23T03:14:56;12.90;99.90
25550;DHT22;13444;50.562;7.262;2023-03-23T03:17:25;12.80;99.90
25550;DHT22;13444;50.562;7.262;2023-03-23T03:19:56;12.80;99.90
25550;DHT22;13444;50.562;7.262;2023-03-23T03:22:23;12.80;99.90
25550;DHT22;13444;50.562;7.262;2023-03-23T03:24:50;12.70;99.90
25550;DHT22;13444;50.562;7.262;2023-03-23T03:27:18;12.70;99.90
25550;DHT22;13444;50.562;7.262;2023-03-23T03:29:48;12.60;99.90
25550;DHT22;13444;50.562;7.262;2023-03-23T03:32:18;12.60;99.90
25550;DHT22;13444;50.562;7.262;2023-03-23T03:34:45;12.60;99.90
25550;DHT22;13444;50.562;7.262;2023-03-23T03:37:12;12.60;99.90
25550;DHT22;13444;50.562;7.262;2023-03-23T03:39:38;12.60;99.90
25550;DHT22;13444;50.562;7.262;2023-03-23T03:42:07;12.70;99.90
25550;DHT22;13444;50.562;7.262;2023-03-23T03:44:33;12.60;99.90
25550;DHT22;13444;50.562;7.262;2023-03-23T03:46:59;12.60;99.90
25550;DHT22;13444;50.562;7.262;2023-03-23T03:49:25;12.60;99.90
25550;DHT22;13444;50.562;7.262;2023-03-23T03:51:51;12.60;99.90
25550;DHT22;13444;50.562;7.262;2023-03-23T03:54:17;12.60;99.90
25550;DHT22;13444;50.562;7.262;2023-03-23T03:56:43;12.60;99.90
25550;DHT22;13444;50.562;7.262;2023-03-23T03:59:09;12.60;99.90
25550;DHT22;13444;50.562;7.262;2023-03-23T04:01:36;12.50;99.90
25550;DHT22;13444;50.562;7.262;2023-03-23T04:04:02;12.50;99.90
25550;DHT22;13444;50.562;7.262;2023-03-23T04:06:29;12.50;99.90
25550;DHT22;13444;50.562;7.262;2023-03-23T04:08:55;12.50;99.90
25550;DHT22;13444;50.562;7.262;2023-03-23T04:11:21;12.50;99.90
25550;DHT22;13444;50.562;7.262;2023-03-23T04:13:47;12.50;99.90
25550;DHT22;13444;50.562;7.262;2023-03-23T04:16:12;12.50;99.90
25550;DHT22;13444;50.562;7.262;2023-03-23T04:18:38;12.50;99.90
25550;DHT22;13444;50.562;7.262;2023-03-23T04:21:04;12.50;99.90
25550;DHT22;13444;50.562;7.262;2023-03-23T04:23:33;12.50;99.90
25550;DHT22;13444;50.562;7.262;2023-03-23T04:26:00;12.40;99.90
25550;DHT22;13444;50.562;7.262;2023-03-23T04:28:26;12.40;99.90
25550;DHT22;13444;50.562;7.262;2023-03-23T04:30:54;12.50;99.90
25550;DHT22;13444;50.562;7.262;2023-03-23T04:33:24;12.50;99.90
25550;DHT22;13444;50.562;7.262;2023-03-23T04:35:52;12.40;99.90
25550;DHT22;13444;50.562;7.262;2023-03-23T04:38:18;12.40;99.90
25550;DHT22;13444;50.562;7.262;2023-03-23T04:40:50;12.50;99.90
25550;DHT22;13444;50.562;7.262;2023-03-23T04:43:17;12.40;99.90
25550;DHT22;13444;50.562;7.262;2023-03-23T04:45:47;12.40;99.90
25550;DHT22;13444;50.562;7.262;2023-03-23T04:48:17;12.40;99.90
25550;DHT22;13444;50.562;7.262;2023-03-23T04:50:43;12.40;99.90
25550;DHT22;13444;50.562;7.262;2023-03-23T04:53:08;12.40;99.90
25550;DHT22;13444;50.562;7.262;2023-03-23T04:55:35;12.40;99.90
25550;DHT22;13444;50.562;7.262;2023-03-23T04:58:02;12.30;99.90
25550;DHT22;13444;50.562;7.262;2023-03-23T05:00:29;12.30;99.90
25550;DHT22;13444;50.562;7.262;2023-03-23T05:02:54;12.30;99.90
25550;DHT22;13444;50.562;7.262;2023-03-23T05:05:21;12.30;99.90
25550;DHT22;13444;50.562;7.262;2023-03-23T05:07:48;12.30;99.90
25550;DHT22;13444;50.562;7.262;2023-03-23T05:10:14;12.20;99.90
25550;DHT22;13444;50.562;7.262;2023-03-23T05:12:40;12.30;99.90
25550;DHT22;13444;50.562;7.262;2023-03-23T05:15:06;12.20;99.90
25550;DHT22;13444;50.562;7.262;2023-03-23T05:17:33;12.30;99.90
25550;DHT22;13444;50.562;7.262;2023-03-23T05:19:59;12.20;99.90
25550;DHT22;13444;50.562;7.262;2023-03-23T05:22:28;12.20;99.90
25550;DHT22;13444;50.562;7.262;2023-03-23T05:24:58;12.20;99.90
25550;DHT22;13444;50.562;7.262;2023-03-23T05:27:23;12.10;99.90
25550;DHT22;13444;50.562;7.262;2023-03-23T05:29:49;12.10;99.90
25550;DHT22;13444;50.562;7.262;2023-03-23T05:32:15;12.10;99.90
25550;DHT22;13444;50.562;7.262;2023-03-23T05:34:42;12.10;99.90
25550;DHT22;13444;50.562;7.262;2023-03-23T05:37:09;12.10;99.90
25550;DHT22;13444;50.562;7.262;2023-03-23T05:39:35;12.10;99.90
25550;DHT22;13444;50.562;7.262;2023-03-23T05:42:01;12.20;99.90
25550;DHT22;13444;50.562;7.262;2023-03-23T05:44:26;12.20;99.90
25550;DHT22;13444;50.562;7.262;2023-03-23T05:46:52;12.20;99.90
25550;DHT22;13444;50.562;7.262;2023-03-23T05:49:17;12.30;99.90
25550;DHT22;13444;50.562;7.262;2023-03-23T05:51:44;12.30;99.90
25550;DHT22;13444;50.562;7.262;2023-03-23T05:54:11;12.30;99.90
25550;DHT22;13444;50.562;7.262;2023-03-23T05:56:37;12.40;99.90
25550;DHT22;13444;50.562;7.262;2023-03-23T05:59:03;12.40;99.90
25550;DHT22;13444;50.562;7.262;2023-03-23T06:01:29;12.40;99.90
25550;DHT22;13444;50.562;7.262;2023-03-23T06:03:54;12.40;99.90
25550;DHT22;13444;50.562;7.262;2023-03-23T06:06:25;12.50;99.90
25550;DHT22;13444;50.562;7.262;2023-03-23T06:08:51;12.50;99.90
25550;DHT22;13444;50.562;7.262;2023-03-23T06:11:16;12.50;99.90
25550;DHT22;13444;50.562;7.262;2023-03-23T06:13:42;12.50;99.90
25550;DHT22;13444;50.562;7.262;2023-03-23T06:16:08;12.50;99.90
25550;DHT22;13444;50.562;7.262;2023-03-23T06:18:34;12.50;99.90
25550;DHT22;13444;50.562;7.262;2023-03-23T06:21:02;12.50;99.90
25550;DHT22;13444;50.562;7.262;2023-03-23T06:23:28;12.60;99.90
25550;DHT22;13444;50.562;7.262;2023-03-23T06:25:57;12.60;99.90
25550;DHT22;13444;50.562;7.262;2023-03-23T06:28:22;12.60;99.90
25550;DHT22;13444;50.562;7.262;2023-03-23T06:30:48;12.60;99.90
25550;DHT22;13444;50.562;7.262;2023-03-23T06:33:13;12.60;99.90
25550;DHT22;13444;50.562;7.262;2023-03-23T06:35:39;12.60;99.90
25550;DHT22;13444;50.562;7.262;2023-03-23T06:38:06;12.60;99.90
25550;DHT22;13444;50.562;7.262;2023-03-23T06:40:31;12.60;99.90
25550;DHT22;13444;50.562;7.262;2023-03-23T06:42:57;12.70;99.90
25550;DHT22;13444;50.562;7.262;2023-03-23T06:45:24;12.70;99.90
25550;DHT22;13444;50.562;7.262;2023-03-23T06:47:50;12.70;99.90
25550;DHT22;13444;50.562;7.262;2023-03-23T06:50:16;12.80;99.90
25550;DHT22;13444;50.562;7.262;2023-03-23T06:52:49;12.80;99.90
25550;DHT22;13444;50.562;7.262;2023-03-23T06:55:18;12.80;99.90
25550;DHT22;13444;50.562;7.262;2023-03-23T06:57:44;12.80;99.90
25550;DHT22;13444;50.562;7.262;2023-03-23T07:00:11;12.80;99.90
25550;DHT22;13444;50.562;7.262;2023-03-23T07:02:42;12.90;99.90
25550;DHT22;13444;50.562;7.262;2023-03-23T07:05:09;12.90;99.90
25550;DHT22;13444;50.562;7.262;2023-03-23T07:07:37;13.00;99.90
25550;DHT22;13444;50.562;7.262;2023-03-23T07:10:07;12.90;99.90
25550;DHT22;13444;50.562;7.262;2023-03-23T07:12:34;12.90;99.90
25550;DHT22;13444;50.562;7.262;2023-03-23T07:15:02;13.00;99.90
25550;DHT22;13444;50.562;7.262;2023-03-23T07:17:28;13.00;99.90
25550;DHT22;13444;50.562;7.262;2023-03-23T07:19:54;13.00;99.90
25550;DHT22;13444;50.562;7.262;2023-03-23T07:22:19;13.10;99.90
25550;DHT22;13444;50.562;7.262;2023-03-23T07:24:45;13.10;99.90
25550;DHT22;13444;50.562;7.262;2023-03-23T07:27:11;13.10;99.90
25550;DHT22;13444;50.562;7.262;2023-03-23T07:29:36;13.10;99.90
25550;DHT22;13444;50.562;7.262;2023-03-23T07:32:04;13.10;99.90
25550;DHT22;13444;50.562;7.262;2023-03-23T07:34:30;13.20;99.90
25550;DHT22;13444;50.562;7.262;2023-03-23T07:36:57;13.20;99.90
25550;DHT22;13444;50.562;7.262;2023-03-23T07:39:22;13.30;99.90
25550;DHT22;13444;50.562;7.262;2023-03-23T07:41:49;13.30;99.90
25550;DHT22;13444;50.562;7.262;2023-03-23T07:44:15;13.30;99.90
25550;DHT22;13444;50.562;7.262;2023-03-23T07:46:40;13.40;99.90
25550;DHT22;13444;50.562;7.262;2023-03-23T07:49:07;13.50;99.90
25550;DHT22;13444;50.562;7.262;2023-03-23T07:51:33;13.50;99.90
25550;DHT22;13444;50.562;7.262;2023-03-23T07:54:00;13.50;99.90
25550;DHT22;13444;50.562;7.262;2023-03-23T07:56:27;13.60;99.90
25550;DHT22;13444;50.562;7.262;2023-03-23T07:58:53;13.60;99.90
25550;DHT22;13444;50.562;7.262;2023-03-23T08:01:19;13.60;99.90
25550;DHT22;13444;50.562;7.262;2023-03-23T08:03:44;13.60;99.90
25550;DHT22;13444;50.562;7.262;2023-03-23T08:06:10;13.60;99.90
25550;DHT22;13444;50.562;7.262;2023-03-23T08:08:36;13.70;99.90
25550;DHT22;13444;50.562;7.262;2023-03-23T08:11:03;13.70;99.90
25550;DHT22;13444;50.562;7.262;2023-03-23T08:13:28;13.70;99.90
25550;DHT22;13444;50.562;7.262;2023-03-23T08:15:54;13.70;99.90
25550;DHT22;13444;50.562;7.262;2023-03-23T08:18:20;13.70;99.90
25550;DHT22;13444;50.562;7.262;2023-03-23T08:20:45;13.80;99.90
25550;DHT22;13444;50.562;7.262;2023-03-23T08:23:11;13.80;99.90
25550;DHT22;13444;50.562;7.262;2023-03-23T08:25:37;13.80;99.90
25550;DHT22;13444;50.562;7.262;2023-03-23T08:28:03;13.90;99.90
25550;DHT22;13444;50.562;7.262;2023-03-23T08:30:30;13.90;99.90
25550;DHT22;13444;50.562;7.262;2023-03-23T08:32:58;13.90;99.90
25550;DHT22;13444;50.562;7.262;2023-03-23T08:35:25;13.90;99.90
25550;DHT22;13444;50.562;7.262;2023-03-23T08:37:51;14.00;99.90
25550;DHT22;13444;50.562;7.262;2023-03-23T08:40:19;14.00;99.90
25550;DHT22;13444;50.562;7.262;2023-03-23T08:42:45;13.90;99.90
25550;DHT22;13444;50.562;7.262;2023-03-23T08:45:15;13.90;99.90
25550;DHT22;13444;50.562;7.262;2023-03-23T08:47:42;14.00;99.90
25550;DHT22;13444;50.562;7.262;2023-03-23T08:50:11;14.10;99.90
25550;DHT22;13444;50.562;7.262;2023-03-23T08:52:37;14.10;99.90
25550;DHT22;13444;50.562;7.262;2023-03-23T08:55:04;14.10;99.90
25550;DHT22;13444;50.562;7.262;2023-03-23T08:57:31;14.20;99.90
25550;DHT22;13444;50.562;7.262;2023-03-23T08:59:57;14.20;99.90
25550;DHT22;13444;50.562;7.262;2023-03-23T09:02:33;14.20;99.90
25550;DHT22;13444;50.562;7.262;2023-03-23T09:04:59;14.20;99.90
25550;DHT22;13444;50.562;7.262;2023-03-23T09:07:27;14.20;99.90
25550;DHT22;13444;50.562;7.262;2023-03-23T09:09:53;14.30;99.90
25550;DHT22;13444;50.562;7.262;2023-03-23T09:12:18;14.30;99.90
25550;DHT22;13444;50.562;7.262;2023-03-23T09:14:44;14.30;99.90
25550;DHT22;13444;50.562;7.262;2023-03-23T09:17:10;14.30;99.90
25550;DHT22;13444;50.562;7.262;2023-03-23T09:19:36;14.30;99.90
25550;DHT22;13444;50.562;7.262;2023-03-23T09:22:02;14.30;99.90
25550;DHT22;13444;50.562;7.262;2023-03-23T09:24:29;14.40;99.90
25550;DHT22;13444;50.562;7.262;2023-03-23T09:26:55;14.40;99.90
25550;DHT22;13444;50.562;7.262;2023-03-23T09:29:20;14.40;99.90
25550;DHT22;13444;50.562;7.262;2023-03-23T09:31:46;14.50;99.90
25550;DHT22;13444;50.562;7.262;2023-03-23T09:34:13;14.50;99.90
25550;DHT22;13444;50.562;7.262;2023-03-23T09:36:41;14.50;99.90
25550;DHT22;13444;50.562;7.262;2023-03-23T09:39:06;14.60;99.90
25550;DHT22;13444;50.562;7.262;2023-03-23T09:41:41;14.50;99.90
25550;DHT22;13444;50.562;7.262;2023-03-23T09:44:19;14.50;99.90
25550;DHT22;13444;50.562;7.262;2023-03-23T09:47:09;14.50;99.90
25550;DHT22;13444;50.562;7.262;2023-03-23T09:49:48;14.60;99.90
25550;DHT22;13444;50.562;7.262;2023-03-23T09:52:17;14.60;99.90
25550;DHT22;13444;50.562;7.262;2023-03-23T09:54:51;14.60;99.90
25550;DHT22;13444;50.562;7.262;2023-03-23T10:03:01;14.70;99.90
25550;DHT22;13444;50.562;7.262;2023-03-23T10:05:34;14.80;99.90
25550;DHT22;13444;50.562;7.262;2023-03-23T10:08:05;14.80;99.90
25550;DHT22;13444;50.562;7.262;2023-03-23T10:16:28;14.90;99.90
25550;DHT22;13444;50.562;7.262;2023-03-23T10:21:38;14.90;99.90
25550;DHT22;13444;50.562;7.262;2023-03-23T10:24:10;14.80;99.90
25550;DHT22;13444;50.562;7.262;2023-03-23T10:26:51;14.90;99.90
25550;DHT22;13444;50.562;7.262;2023-03-23T10:31:59;14.80;99.90
25550;DHT22;13444;50.562;7.262;2023-03-23T10:34:32;14.80;99.90
25550;DHT22;13444;50.562;7.262;2023-03-23T10:37:08;14.80;99.90
25550;DHT22;13444;50.562;7.262;2023-03-23T10:39:56;14.90;99.90
25550;DHT22;13444;50.562;7.262;2023-03-23T10:42:25;14.90;99.90
25550;DHT22;13444;50.562;7.262;2023-03-23T10:44:52;14.90;99.90
25550;DHT22;13444;50.562;7.262;2023-03-23T10:47:18;14.80;99.90
25550;DHT22;13444;50.562;7.262;2023-03-23T10:49:58;14.80;99.90
25550;DHT22;13444;50.562;7.262;2023-03-23T10:52:30;14.90;99.90
25550;DHT22;13444;50.562;7.262;2023-03-23T10:55:11;14.90;99.90
25550;DHT22;13444;50.562;7.262;2023-03-23T10:57:39;14.90;99.90
25550;DHT22;13444;50.562;7.262;2023-03-23T11:00:20;14.80;99.90
25550;DHT22;13444;50.562;7.262;2023-03-23T11:02:57;14.80;99.90
25550;DHT22;13444;50.562;7.262;2023-03-23T11:06:11;14.80;99.90
25550;DHT22;13444;50.562;7.262;2023-03-23T11:08:19;14.90;99.90
25550;DHT22;13444;50.562;7.262;2023-03-23T11:10:51;14.90;99.90
25550;DHT22;13444;50.562;7.262;2023-03-23T11:13:18;14.90;99.90
25550;DHT22;13444;50.562;7.262;2023-03-23T11:15:46;14.90;99.90
25550;DHT22;13444;50.562;7.262;2023-03-23T11:18:22;14.90;99.90
25550;DHT22;13444;50.562;7.262;2023-03-23T11:20:52;14.90;99.90
25550;DHT22;13444;50.562;7.262;2023-03-23T11:23:30;14.90;99.90
25550;DHT22;13444;50.562;7.262;2023-03-23T11:28:32;15.00;99.90
25550;DHT22;13444;50.562;7.262;2023-03-23T11:31:00;15.10;99.90
25550;DHT22;13444;50.562;7.262;2023-03-23T11:33:35;15.10;99.90
25550;DHT22;13444;50.562;7.262;2023-03-23T11:36:03;15.10;99.90
25550;DHT22;13444;50.562;7.262;2023-03-23T11:38:29;15.20;99.90
25550;DHT22;13444;50.562;7.262;2023-03-23T11:40:54;15.20;99.90
25550;DHT22;13444;50.562;7.262;2023-03-23T11:43:22;15.20;99.90
25550;DHT22;13444;50.562;7.262;2023-03-23T11:48:35;15.30;99.90
25550;DHT22;13444;50.562;7.262;2023-03-23T11:51:19;15.30;99.90
25550;DHT22;13444;50.562;7.262;2023-03-23T11:53:52;15.30;99.90
25550;DHT22;13444;50.562;7.262;2023-03-23T11:58:50;15.40;99.90
25550;DHT22;13444;50.562;7.262;2023-03-23T12:04:03;15.50;99.90
25550;DHT22;13444;50.562;7.262;2023-03-23T12:12:16;15.60;99.90
25550;DHT22;13444;50.562;7.262;2023-03-23T12:14:58;15.70;99.90
25550;DHT22;13444;50.562;7.262;2023-03-23T12:29:15;16.10;99.90
25550;DHT22;13444;50.562;7.262;2023-03-23T12:32:07;16.20;99.90
25550;DHT22;13444;50.562;7.262;2023-03-23T12:34:41;16.10;99.90
25550;DHT22;13444;50.562;7.262;2023-03-23T12:37:31;16.10;99.90
25550;DHT22;13444;50.562;7.262;2023-03-23T12:49:08;16.00;99.90
25550;DHT22;13444;50.562;7.262;2023-03-23T12:51:44;16.00;99.90
25550;DHT22;13444;50.562;7.262;2023-03-23T12:57:20;16.00;99.90
25550;DHT22;13444;50.562;7.262;2023-03-23T12:59:57;16.00;99.90
25550;DHT22;13444;50.562;7.262;2023-03-23T13:02:31;16.00;99.90
25550;DHT22;13444;50.562;7.262;2023-03-23T13:08:04;15.90;99.90
25550;DHT22;13444;50.562;7.262;2023-03-23T13:10:40;15.80;99.90
25550;DHT22;13444;50.562;7.262;2023-03-23T13:13:14;15.90;99.90
25550;DHT22;13444;50.562;7.262;2023-03-23T13:18:36;15.80;99.90
25550;DHT22;13444;50.562;7.262;2023-03-23T13:23:35;15.80;99.90
25550;DHT22;13444;50.562;7.262;2023-03-23T13:26:12;15.80;99.90
25550;DHT22;13444;50.562;7.262;2023-03-23T13:31:38;15.80;99.90
25550;DHT22;13444;50.562;7.262;2023-03-23T13:39:33;15.90;99.90
25550;DHT22;13444;50.562;7.262;2023-03-23T13:49:55;15.90;99.90
25550;DHT22;13444;50.562;7.262;2023-03-23T14:05:35;15.70;99.90
25550;DHT22;13444;50.562;7.262;2023-03-23T14:10:35;15.70;99.90
25550;DHT22;13444;50.562;7.262;2023-03-23T14:13:02;15.80;99.90
25550;DHT22;13444;50.562;7.262;2023-03-23T14:15:29;15.80;99.90
25550;DHT22;13444;50.562;7.262;2023-03-23T14:17:56;15.80;99.90
25550;DHT22;13444;50.562;7.262;2023-03-23T14:20:29;15.90;99.90
25550;DHT22;13444;50.562;7.262;2023-03-23T14:22:55;15.90;99.90
25550;DHT22;13444;50.562;7.262;2023-03-23T14:25:22;15.90;99.90
25550;DHT22;13444;50.562;7.262;2023-03-23T14:27:51;16.00;99.90
25550;DHT22;13444;50.562;7.262;2023-03-23T14:30:21;16.00;99.90
25550;DHT22;13444;50.562;7.262;2023-03-23T14:32:47;16.10;99.90
25550;DHT22;13444;50.562;7.262;2023-03-23T14:35:31;16.20;99.90
25550;DHT22;13444;50.562;7.262;2023-03-23T14:37:57;16.20;99.90
25550;DHT22;13444;50.562;7.262;2023-03-23T14:40:26;16.20;99.90
25550;DHT22;13444;50.562;7.262;2023-03-23T14:42:53;16.20;99.90
25550;DHT22;13444;50.562;7.262;2023-03-23T14:45:21;16.30;99.90
25550;DHT22;13444;50.562;7.262;2023-03-23T14:47:53;16.30;99.90
25550;DHT22;13444;50.562;7.262;2023-03-23T14:50:49;16.20;99.90
25550;DHT22;13444;50.562;7.262;2023-03-23T14:53:22;16.20;99.90
25550;DHT22;13444;50.562;7.262;2023-03-23T14:55:50;16.10;99.90
25550;DHT22;13444;50.562;7.262;2023-03-23T14:58:17;16.10;99.90
25550;DHT22;13444;50.562;7.262;2023-03-23T15:01:01;16.10;99.90
25550;DHT22;13444;50.562;7.262;2023-03-23T15:03:36;16.10;99.90
25550;DHT22;13444;50.562;7.262;2023-03-23T15:06:07;16.10;99.90
25550;DHT22;13444;50.562;7.262;2023-03-23T15:08:36;16.20;99.90
25550;DHT22;13444;50.562;7.262;2023-03-23T15:11:28;16.20;99.90
25550;DHT22;13444;50.562;7.262;2023-03-23T15:13:57;16.30;99.90
25550;DHT22;13444;50.562;7.262;2023-03-23T15:16:27;16.30;99.90
25550;DHT22;13444;50.562;7.262;2023-03-23T15:19:02;16.40;99.90
25550;DHT22;13444;50.562;7.262;2023-03-23T15:21:31;16.40;99.90
25550;DHT22;13444;50.562;7.262;2023-03-23T15:23:58;16.40;99.90
25550;DHT22;13444;50.562;7.262;2023-03-23T15:26:31;16.20;99.90
25550;DHT22;13444;50.562;7.262;2023-03-23T15:29:03;16.30;99.90
25550;DHT22;13444;50.562;7.262;2023-03-23T15:31:29;16.40;99.90
25550;DHT22;13444;50.562;7.262;2023-03-23T15:33:58;16.40;99.90
25550;DHT22;13444;50.562;7.262;2023-03-23T15:36:25;16.50;99.90
25550;DHT22;13444;50.562;7.262;2023-03-23T15:38:57;16.40;99.90
25550;DHT22;13444;50.562;7.262;2023-03-23T15:41:29;16.40;99.90
25550;DHT22;13444;50.562;7.262;2023-03-23T15:43:57;16.30;99.90
25550;DHT22;13444;50.562;7.262;2023-03-23T15:46:26;16.30;99.90
25550;DHT22;13444;50.562;7.262;2023-03-23T15:51:25;16.30;99.90
25550;DHT22;13444;50.562;7.262;2023-03-23T15:53:52;16.30;99.90
25550;DHT22;13444;50.562;7.262;2023-03-23T15:56:18;16.30;99.90
25550;DHT22;13444;50.562;7.262;2023-03-23T15:58:44;16.20;99.90
25550;DHT22;13444;50.562;7.262;2023-03-23T16:01:22;16.20;99.90
25550;DHT22;13444;50.562;7.262;2023-03-23T16:04:12;16.20;99.90
25550;DHT22;13444;50.562;7.262;2023-03-23T16:06:37;16.10;99.90
25550;DHT22;13444;50.562;7.262;2023-03-23T16:09:04;16.10;99.90
25550;DHT22;13444;50.562;7.262;2023-03-23T16:11:30;16.10;99.90
25550;DHT22;13444;50.562;7.262;2023-03-23T16:13:57;16.00;99.90
25550;DHT22;13444;50.562;7.262;2023-03-23T16:16:26;16.00;99.90
25550;DHT22;13444;50.562;7.262;2023-03-23T16:18:53;16.00;99.90
25550;DHT22;13444;50.562;7.262;2023-03-23T16:21:18;16.00;99.90
25550;DHT22;13444;50.562;7.262;2023-03-23T16:23:44;16.00;99.90
25550;DHT22;13444;50.562;7.262;2023-03-23T16:26:11;16.00;99.90
25550;DHT22;13444;50.562;7.262;2023-03-23T16:28:37;16.10;99.90
25550;DHT22;13444;50.562;7.262;2023-03-23T16:31:03;16.10;99.90
25550;DHT22;13444;50.562;7.262;2023-03-23T16:33:29;16.10;99.90
25550;DHT22;13444;50.562;7.262;2023-03-23T16:35:54;16.10;99.90
25550;DHT22;13444;50.562;7.262;2023-03-23T16:38:21;16.10;99.90
25550;DHT22;13444;50.562;7.262;2023-03-23T16:40:47;16.10;99.90
25550;DHT22;13444;50.562;7.262;2023-03-23T16:43:13;16.00;99.90
25550;DHT22;13444;50.562;7.262;2023-03-23T16:45:41;16.00;99.90
25550;DHT22;13444;50.562;7.262;2023-03-23T16:48:08;15.90;99.90
25550;DHT22;13444;50.562;7.262;2023-03-23T16:50:34;16.00;99.90
25550;DHT22;13444;50.562;7.262;2023-03-23T16:53:00;15.90;99.90
25550;DHT22;13444;50.562;7.262;2023-03-23T16:55:26;15.90;99.90
25550;DHT22;13444;50.562;7.262;2023-03-23T16:57:53;15.80;99.90
25550;DHT22;13444;50.562;7.262;2023-03-23T17:00:19;15.80;99.90
25550;DHT22;13444;50.562;7.262;2023-03-23T17:02:47;15.70;99.90
25550;DHT22;13444;50.562;7.262;2023-03-23T17:05:13;15.70;99.90
25550;DHT22;13444;50.562;7.262;2023-03-23T17:07:40;15.60;99.90
25550;DHT22;13444;50.562;7.262;2023-03-23T17:10:08;15.60;99.90
25550;DHT22;13444;50.562;7.262;2023-03-23T17:12:34;15.60;99.90
25550;DHT22;13444;50.562;7.262;2023-03-23T17:15:00;15.60;99.90
25550;DHT22;13444;50.562;7.262;2023-03-23T17:17:26;15.50;99.90
25550;DHT22;13444;50.562;7.262;2023-03-23T17:19:51;15.50;99.90
25550;DHT22;13444;50.562;7.262;2023-03-23T17:22:17;15.50;99.90
25550;DHT22;13444;50.562;7.262;2023-03-23T17:24:43;15.50;99.90
25550;DHT22;13444;50.562;7.262;2023-03-23T17:27:10;15.50;99.90
25550;DHT22;13444;50.562;7.262;2023-03-23T17:29:35;15.50;99.90
25550;DHT22;13444;50.562;7.262;2023-03-23T17:32:01;15.50;99.90
25550;DHT22;13444;50.562;7.262;2023-03-23T17:34:26;15.40;99.90
25550;DHT22;13444;50.562;7.262;2023-03-23T17:36:52;15.40;99.90